sensor_id;sensor_type;location;lat;lon;timestamp;P1;durP1;ratioP1;P2;durP2;ratioP2
31348;SDS011;17976;48.480;11.946;2023-02-15T00:02:10;37.08;;;14.77;;
31348;SDS011;17976;48.480;11.946;2023-02-15T00:04:36;37.95;;;16.83;;
31348;SDS011;17976;48.480;11.946;2023-02-15T00:07:13;37.38;;;16.45;;
31348;SDS011;17976;48.480;11.946;2023-02-15T00:09:39;47.45;;;16.00;;
31348;SDS011;17976;48.480;11.946;2023-02-15T00:12:05;46.55;;;14.90;;
31348;SDS011;17976;48.480;11.946;2023-02-15T00:14:31;51.33;;;15.18;;
31348;SDS011;17976;48.480;11.946;2023-02-15T00:16:57;37.40;;;15.38;;
31348;SDS011;17976;48.480;11.946;2023-02-15T00:19:24;39.75;;;15.65;;
31348;SDS011;17976;48.480;11.946;2023-02-15T00:21:51;40.53;;;14.98;;
31348;SDS011;17976;48.480;11.946;2023-02-15T00:24:17;46.63;;;14.68;;
31348;SDS011;17976;48.480;11.946;2023-02-15T00:26:44;36.03;;;14.50;;
31348;SDS011;17976;48.480;11.946;2023-02-15T00:29:11;33.38;;;14.75;;
31348;SDS011;17976;48.480;11.946;2023-02-15T00:31:37;39.17;;;15.10;;
31348;SDS011;17976;48.480;11.946;2023-02-15T10:42:30;29.60;;;14.07;;
31348;SDS011;17976;48.480;11.946;2023-02-15T10:45:10;31.05;;;14.68;;
31348;SDS011;17976;48.480;11.946;2023-02-15T10:58:03;29.85;;;14.20;;
31348;SDS011;17976;48.480;11.946;2023-02-15T11:05:38;30.52;;;15.65;;
31348;SDS011;17976;48.480;11.946;2023-02-15T11:08:08;38.10;;;15.80;;
31348;SDS011;17976;48.480;11.946;2023-02-15T11:10:36;34.80;;;15.65;;
31348;SDS011;17976;48.480;11.946;2023-02-15T11:13:14;28.80;;;14.90;;
31348;SDS011;17976;48.480;11.946;2023-02-15T11:15:55;33.00;;;15.23;;
31348;SDS011;17976;48.480;11.946;2023-02-15T11:18:27;31.27;;;15.48;;
31348;SDS011;17976;48.480;11.946;2023-02-15T11:23:42;31.85;;;15.73;;
31348;SDS011;17976;48.480;11.946;2023-02-15T11:28:58;32.55;;;15.40;;
31348;SDS011;17976;48.480;11.946;2023-02-15T11:31:40;28.60;;;15.03;;
31348;SDS011;17976;48.480;11.946;2023-02-15T11:34:11;35.15;;;16.13;;
31348;SDS011;17976;48.480;11.946;2023-02-15T11:36:40;31.65;;;16.67;;
31348;SDS011;17976;48.480;11.946;2023-02-15T11:39:11;31.80;;;15.95;;
31348;SDS011;17976;48.480;11.946;2023-02-15T11:41:40;33.70;;;16.38;;
31348;SDS011;17976;48.480;11.946;2023-02-15T11:44:23;31.45;;;16.58;;
31348;SDS011;17976;48.480;11.946;2023-02-15T11:46:51;40.88;;;19.20;;
31348;SDS011;17976;48.480;11.946;2023-02-15T11:49:25;32.70;;;15.90;;
31348;SDS011;17976;48.480;11.946;2023-02-15T11:51:52;33.50;;;15.98;;
31348;SDS011;17976;48.480;11.946;2023-02-15T11:54:19;34.85;;;16.05;;
31348;SDS011;17976;48.480;11.946;2023-02-15T11:56:46;32.55;;;16.05;;
31348;SDS011;17976;48.480;11.946;2023-02-15T11:59:24;29.00;;;14.20;;
31348;SDS011;17976;48.480;11.946;2023-02-15T12:01:52;27.55;;;14.73;;
31348;SDS011;17976;48.480;11.946;2023-02-15T12:06:45;36.03;;;17.33;;
31348;SDS011;17976;48.480;11.946;2023-02-15T12:09:26;35.60;;;17.58;;
31348;SDS011;17976;48.480;11.946;2023-02-15T12:12:06;35.85;;;16.67;;
31348;SDS011;17976;48.480;11.946;2023-02-15T12:14:48;32.72;;;15.65;;
31348;SDS011;17976;48.480;11.946;2023-02-15T12:17:14;31.42;;;16.10;;
31348;SDS011;17976;48.480;11.946;2023-02-15T12:19:41;32.90;;;17.80;;
31348;SDS011;17976;48.480;11.946;2023-02-15T12:22:27;29.05;;;15.30;;
31348;SDS011;17976;48.480;11.946;2023-02-15T12:24:54;30.88;;;16.17;;
31348;SDS011;17976;48.480;11.946;2023-02-15T12:27:21;29.50;;;15.25;;
31348;SDS011;17976;48.480;11.946;2023-02-15T12:29:53;32.30;;;15.55;;
31348;SDS011;17976;48.480;11.946;2023-02-15T12:32:26;34.88;;;15.52;;
31348;SDS011;17976;48.480;11.946;2023-02-15T12:34:54;33.00;;;15.65;;
31348;SDS011;17976;48.480;11.946;2023-02-15T12:37:22;33.58;;;15.68;;
31348;SDS011;17976;48.480;11.946;2023-02-15T12:39:53;37.65;;;16.27;;
31348;SDS011;17976;48.480;11.946;2023-02-15T12:42:20;31.10;;;15.85;;
31348;SDS011;17976;48.480;11.946;2023-02-15T12:44:54;33.78;;;16.52;;
31348;SDS011;17976;48.480;11.946;2023-02-15T12:47:20;35.80;;;15.30;;
31348;SDS011;17976;48.480;11.946;2023-02-15T12:52:30;30.63;;;15.63;;
31348;SDS011;17976;48.480;11.946;2023-02-15T12:54:56;32.50;;;17.05;;
31348;SDS011;17976;48.480;11.946;2023-02-15T12:57:35;33.47;;;16.75;;
31348;SDS011;17976;48.480;11.946;2023-02-15T13:00:05;34.95;;;16.80;;
31348;SDS011;17976;48.480;11.946;2023-02-15T13:05:19;32.60;;;16.90;;
31348;SDS011;17976;48.480;11.946;2023-02-15T13:07:49;31.45;;;16.33;;
31348;SDS011;17976;48.480;11.946;2023-02-15T13:10:33;32.28;;;17.00;;
31348;SDS011;17976;48.480;11.946;2023-02-15T13:12:59;38.78;;;17.52;;
31348;SDS011;17976;48.480;11.946;2023-02-15T13:15:32;38.42;;;17.88;;
31348;SDS011;17976;48.480;11.946;2023-02-15T13:18:00;34.63;;;17.25;;
31348;SDS011;17976;48.480;11.946;2023-02-15T13:20:26;36.42;;;17.98;;
31348;SDS011;17976;48.480;11.946;2023-02-15T13:23:01;39.22;;;18.08;;
31348;SDS011;17976;48.480;11.946;2023-02-15T13:25:31;31.63;;;16.75;;
31348;SDS011;17976;48.480;11.946;2023-02-15T13:28:03;35.05;;;18.63;;
31348;SDS011;17976;48.480;11.946;2023-02-15T13:30:31;36.67;;;18.15;;
31348;SDS011;17976;48.480;11.946;2023-02-15T13:33:01;34.15;;;17.23;;
31348;SDS011;17976;48.480;11.946;2023-02-15T13:35:31;37.88;;;18.77;;
31348;SDS011;17976;48.480;11.946;2023-02-15T13:43:05;34.17;;;18.15;;
31348;SDS011;17976;48.480;11.946;2023-02-15T13:48:27;38.75;;;18.67;;
31348;SDS011;17976;48.480;11.946;2023-02-15T13:52:03;29.48;;;16.83;;
31348;SDS011;17976;48.480;11.946;2023-02-15T14:12:58;34.67;;;18.50;;
31348;SDS011;17976;48.480;11.946;2023-02-15T14:15:48;30.33;;;17.35;;
31348;SDS011;17976;48.480;11.946;2023-02-15T14:18:29;34.17;;;18.52;;
31348;SDS011;17976;48.480;11.946;2023-02-15T14:21:40;34.85;;;18.45;;
31348;SDS011;17976;48.480;11.946;2023-02-15T14:26:32;34.90;;;18.42;;
31348;SDS011;17976;48.480;11.946;2023-02-15T14:31:49;37.13;;;18.52;;
31348;SDS011;17976;48.480;11.946;2023-02-15T14:34:50;36.63;;;18.67;;
31348;SDS011;17976;48.480;11.946;2023-02-15T14:37:09;35.60;;;18.40;;
31348;SDS011;17976;48.480;11.946;2023-02-15T14:39:41;36.38;;;17.52;;
31348;SDS011;17976;48.480;11.946;2023-02-15T14:42:51;37.78;;;18.63;;
31348;SDS011;17976;48.480;11.946;2023-02-15T14:47:42;34.75;;;17.92;;
31348;SDS011;17976;48.480;11.946;2023-02-15T14:53:14;34.33;;;16.88;;
31348;SDS011;17976;48.480;11.946;2023-02-15T14:55:40;30.85;;;17.25;;
31348;SDS011;17976;48.480;11.946;2023-02-15T14:58:12;33.28;;;17.00;;
31348;SDS011;17976;48.480;11.946;2023-02-15T15:00:39;35.75;;;19.20;;
31348;SDS011;17976;48.480;11.946;2023-02-15T15:03:16;35.67;;;18.20;;
31348;SDS011;17976;48.480;11.946;2023-02-15T15:05:49;43.63;;;23.00;;
31348;SDS011;17976;48.480;11.946;2023-02-15T15:08:35;43.30;;;22.15;;
31348;SDS011;17976;48.480;11.946;2023-02-15T15:13:53;33.75;;;18.33;;
31348;SDS011;17976;48.480;11.946;2023-02-15T15:19:01;36.05;;;19.50;;
31348;SDS011;17976;48.480;11.946;2023-02-15T15:29:41;39.75;;;19.67;;
31348;SDS011;17976;48.480;11.946;2023-02-15T15:32:08;40.72;;;19.50;;
31348;SDS011;17976;48.480;11.946;2023-02-15T15:42:23;37.47;;;19.48;;
31348;SDS011;17976;48.480;11.946;2023-02-15T15:50:14;35.30;;;17.70;;
31348;SDS011;17976;48.480;11.946;2023-02-15T15:52:41;38.95;;;19.08;;
31348;SDS011;17976;48.480;11.946;2023-02-15T15:55:14;36.13;;;18.85;;
31348;SDS011;17976;48.480;11.946;2023-02-15T15:57:42;37.70;;;19.70;;
31348;SDS011;17976;48.480;11.946;2023-02-15T16:01:09;37.45;;;18.17;;
31348;SDS011;17976;48.480;11.946;2023-02-15T16:03:04;38.30;;;19.00;;
31348;SDS011;17976;48.480;11.946;2023-02-15T16:05:37;37.25;;;19.65;;
31348;SDS011;17976;48.480;11.946;2023-02-15T16:08:03;43.13;;;20.65;;
31348;SDS011;17976;48.480;11.946;2023-02-15T16:10:30;37.45;;;20.10;;
31348;SDS011;17976;48.480;11.946;2023-02-15T16:12:57;36.97;;;19.48;;
31348;SDS011;17976;48.480;11.946;2023-02-15T16:15:25;35.45;;;19.52;;
31348;SDS011;17976;48.480;11.946;2023-02-15T16:17:55;38.35;;;20.10;;
31348;SDS011;17976;48.480;11.946;2023-02-15T16:22:48;36.30;;;19.30;;
31348;SDS011;17976;48.480;11.946;2023-02-15T16:25:39;33.35;;;17.77;;
31348;SDS011;17976;48.480;11.946;2023-02-15T16:28:11;38.10;;;18.88;;
31348;SDS011;17976;48.480;11.946;2023-02-15T16:30:37;37.45;;;18.55;;
31348;SDS011;17976;48.480;11.946;2023-02-15T16:33:14;33.65;;;18.58;;
31348;SDS011;17976;48.480;11.946;2023-02-15T16:35:52;60.53;;;26.58;;
31348;SDS011;17976;48.480;11.946;2023-02-15T16:38:21;39.47;;;19.65;;
31348;SDS011;17976;48.480;11.946;2023-02-15T16:40:48;40.90;;;20.17;;
31348;SDS011;17976;48.480;11.946;2023-02-15T16:43:18;38.47;;;20.52;;
31348;SDS011;17976;48.480;11.946;2023-02-15T16:45:45;46.95;;;20.27;;
31348;SDS011;17976;48.480;11.946;2023-02-15T16:48:13;40.38;;;19.55;;
31348;SDS011;17976;48.480;11.946;2023-02-15T16:50:41;41.65;;;20.90;;
31348;SDS011;17976;48.480;11.946;2023-02-15T16:53:14;42.10;;;20.45;;
31348;SDS011;17976;48.480;11.946;2023-02-15T16:55:42;43.10;;;20.52;;
31348;SDS011;17976;48.480;11.946;2023-02-15T16:58:13;45.47;;;21.48;;
31348;SDS011;17976;48.480;11.946;2023-02-15T17:00:40;41.33;;;20.27;;
31348;SDS011;17976;48.480;11.946;2023-02-15T17:03:19;47.88;;;22.67;;
31348;SDS011;17976;48.480;11.946;2023-02-15T17:05:47;45.10;;;21.48;;
31348;SDS011;17976;48.480;11.946;2023-02-15T17:08:14;45.33;;;21.42;;
31348;SDS011;17976;48.480;11.946;2023-02-15T17:10:41;43.10;;;21.25;;
31348;SDS011;17976;48.480;11.946;2023-02-15T17:13:12;44.22;;;22.15;;
31348;SDS011;17976;48.480;11.946;2023-02-15T17:15:39;44.67;;;22.67;;
31348;SDS011;17976;48.480;11.946;2023-02-15T17:18:10;43.15;;;21.73;;
31348;SDS011;17976;48.480;11.946;2023-02-15T17:20:38;45.92;;;22.35;;
31348;SDS011;17976;48.480;11.946;2023-02-15T17:23:06;48.47;;;22.83;;
31348;SDS011;17976;48.480;11.946;2023-02-15T17:25:37;47.65;;;22.33;;
31348;SDS011;17976;48.480;11.946;2023-02-15T17:28:03;43.63;;;21.50;;
31348;SDS011;17976;48.480;11.946;2023-02-15T17:30:30;45.88;;;22.08;;
31348;SDS011;17976;48.480;11.946;2023-02-15T17:33:00;53.08;;;22.95;;
31348;SDS011;17976;48.480;11.946;2023-02-15T17:40:32;47.75;;;22.98;;
31348;SDS011;17976;48.480;11.946;2023-02-15T17:42:58;51.22;;;24.08;;
31348;SDS011;17976;48.480;11.946;2023-02-15T17:45:25;48.75;;;23.30;;
31348;SDS011;17976;48.480;11.946;2023-02-15T17:47:52;52.17;;;23.73;;
31348;SDS011;17976;48.480;11.946;2023-02-15T17:50:22;52.38;;;24.63;;
31348;SDS011;17976;48.480;11.946;2023-02-15T17:52:48;48.90;;;22.23;;
31348;SDS011;17976;48.480;11.946;2023-02-15T17:55:15;53.28;;;24.48;;
31348;SDS011;17976;48.480;11.946;2023-02-15T17:58:04;53.95;;;24.85;;
31348;SDS011;17976;48.480;11.946;2023-02-15T18:00:30;50.30;;;24.90;;
31348;SDS011;17976;48.480;11.946;2023-02-15T18:03:15;46.20;;;23.42;;
31348;SDS011;17976;48.480;11.946;2023-02-15T18:06:00;48.95;;;23.75;;
31348;SDS011;17976;48.480;11.946;2023-02-15T18:08:45;50.58;;;24.55;;
31348;SDS011;17976;48.480;11.946;2023-02-15T18:11:30;53.50;;;23.75;;
31348;SDS011;17976;48.480;11.946;2023-02-15T18:14:02;46.33;;;22.88;;
31348;SDS011;17976;48.480;11.946;2023-02-15T18:16:33;57.10;;;25.55;;
31348;SDS011;17976;48.480;11.946;2023-02-15T18:18:59;49.55;;;23.83;;
31348;SDS011;17976;48.480;11.946;2023-02-15T18:21:25;55.22;;;24.63;;
31348;SDS011;17976;48.480;11.946;2023-02-15T18:23:51;53.15;;;24.13;;
31348;SDS011;17976;48.480;11.946;2023-02-15T18:26:19;51.40;;;23.33;;
31348;SDS011;17976;48.480;11.946;2023-02-15T18:28:45;53.83;;;24.25;;
31348;SDS011;17976;48.480;11.946;2023-02-15T18:31:11;57.92;;;24.23;;
31348;SDS011;17976;48.480;11.946;2023-02-15T18:33:41;52.15;;;25.08;;
31348;SDS011;17976;48.480;11.946;2023-02-15T18:36:12;57.10;;;24.77;;
31348;SDS011;17976;48.480;11.946;2023-02-15T18:38:39;56.22;;;25.13;;
31348;SDS011;17976;48.480;11.946;2023-02-15T18:41:05;56.58;;;25.98;;
31348;SDS011;17976;48.480;11.946;2023-02-15T18:43:31;51.08;;;22.42;;
31348;SDS011;17976;48.480;11.946;2023-02-15T18:45:57;53.42;;;24.40;;
31348;SDS011;17976;48.480;11.946;2023-02-15T18:48:23;55.75;;;24.55;;
31348;SDS011;17976;48.480;11.946;2023-02-15T18:50:49;60.33;;;25.70;;
31348;SDS011;17976;48.480;11.946;2023-02-15T18:53:16;60.15;;;24.73;;
31348;SDS011;17976;48.480;11.946;2023-02-15T18:55:43;54.55;;;25.55;;
31348;SDS011;17976;48.480;11.946;2023-02-15T18:58:16;59.85;;;25.02;;
31348;SDS011;17976;48.480;11.946;2023-02-15T19:00:43;52.83;;;24.95;;
31348;SDS011;17976;48.480;11.946;2023-02-15T19:03:10;57.00;;;24.80;;
31348;SDS011;17976;48.480;11.946;2023-02-15T19:05:36;63.53;;;25.73;;
31348;SDS011;17976;48.480;11.946;2023-02-15T19:08:02;60.53;;;24.55;;
31348;SDS011;17976;48.480;11.946;2023-02-15T19:10:30;62.13;;;25.92;;
31348;SDS011;17976;48.480;11.946;2023-02-15T19:12:56;57.78;;;24.63;;
31348;SDS011;17976;48.480;11.946;2023-02-15T19:15:23;66.82;;;24.27;;
31348;SDS011;17976;48.480;11.946;2023-02-15T19:17:50;84.18;;;26.13;;
31348;SDS011;17976;48.480;11.946;2023-02-15T19:22:42;88.00;;;24.98;;
31348;SDS011;17976;48.480;11.946;2023-02-15T19:25:12;57.58;;;23.65;;
31348;SDS011;17976;48.480;11.946;2023-02-15T19:27:39;67.22;;;26.05;;
31348;SDS011;17976;48.480;11.946;2023-02-15T19:30:15;64.07;;;23.15;;
31348;SDS011;17976;48.480;11.946;2023-02-15T19:32:42;74.80;;;25.38;;
31348;SDS011;17976;48.480;11.946;2023-02-15T19:35:12;61.55;;;24.27;;
31348;SDS011;17976;48.480;11.946;2023-02-15T19:37:38;73.05;;;25.90;;
31348;SDS011;17976;48.480;11.946;2023-02-15T19:40:06;68.95;;;27.08;;
31348;SDS011;17976;48.480;11.946;2023-02-15T19:42:32;69.07;;;25.10;;
31348;SDS011;17976;48.480;11.946;2023-02-15T19:44:58;69.82;;;25.80;;
31348;SDS011;17976;48.480;11.946;2023-02-15T19:47:27;66.47;;;26.95;;
31348;SDS011;17976;48.480;11.946;2023-02-15T19:49:53;57.80;;;25.67;;
31348;SDS011;17976;48.480;11.946;2023-02-15T19:52:25;66.45;;;26.92;;
31348;SDS011;17976;48.480;11.946;2023-02-15T19:54:51;103.55;;;26.58;;
31348;SDS011;17976;48.480;11.946;2023-02-15T19:57:19;80.80;;;25.27;;
31348;SDS011;17976;48.480;11.946;2023-02-15T19:59:45;72.32;;;27.55;;
31348;SDS011;17976;48.480;11.946;2023-02-15T20:02:12;83.95;;;28.13;;
31348;SDS011;17976;48.480;11.946;2023-02-15T20:04:38;102.05;;;28.35;;
31348;SDS011;17976;48.480;11.946;2023-02-15T20:07:05;74.18;;;26.73;;
31348;SDS011;17976;48.480;11.946;2023-02-15T20:09:33;86.72;;;27.85;;
31348;SDS011;17976;48.480;11.946;2023-02-15T20:12:08;97.68;;;28.42;;
31348;SDS011;17976;48.480;11.946;2023-02-15T20:14:37;137.13;;;29.25;;
31348;SDS011;17976;48.480;11.946;2023-02-15T20:17:05;92.80;;;29.65;;
31348;SDS011;17976;48.480;11.946;2023-02-15T20:19:31;103.63;;;30.65;;
31348;SDS011;17976;48.480;11.946;2023-02-15T20:21:57;130.50;;;29.52;;
31348;SDS011;17976;48.480;11.946;2023-02-15T20:24:23;83.28;;;28.88;;
31348;SDS011;17976;48.480;11.946;2023-02-15T20:26:51;87.78;;;30.27;;
31348;SDS011;17976;48.480;11.946;2023-02-15T20:29:17;128.20;;;35.53;;
31348;SDS011;17976;48.480;11.946;2023-02-15T20:31:43;134.90;;;34.42;;
31348;SDS011;17976;48.480;11.946;2023-02-15T20:34:09;81.72;;;30.30;;
31348;SDS011;17976;48.480;11.946;2023-02-15T20:36:35;102.95;;;33.28;;
31348;SDS011;17976;48.480;11.946;2023-02-15T20:39:03;144.18;;;32.05;;
31348;SDS011;17976;48.480;11.946;2023-02-15T20:41:33;174.35;;;32.03;;
31348;SDS011;17976;48.480;11.946;2023-02-15T20:46:37;112.07;;;31.55;;
31348;SDS011;17976;48.480;11.946;2023-02-15T20:49:03;135.73;;;32.75;;
31348;SDS011;17976;48.480;11.946;2023-02-15T20:51:29;125.88;;;29.13;;
31348;SDS011;17976;48.480;11.946;2023-02-15T20:53:55;181.95;;;32.42;;
31348;SDS011;17976;48.480;11.946;2023-02-15T20:56:22;121.10;;;30.75;;
31348;SDS011;17976;48.480;11.946;2023-02-15T20:58:49;209.05;;;31.75;;
